Craigville, Minnesota
Current Conditions -  °F | °C
As of 12:53 PM on Sunday 23 Nov 2014 (Local Time) from KFOZ Reporting Station
Haze Haze  
Wind Chill: 32°   Ceiling: 800
Heat Index: 37°   Visibility: 5mi
Dew Point: 34°   Wind: 7mph
Humidity: 87%   Direction: 190°S
Pressure: 29.4"   Gusts: NA
Location:  47.8544°N, 93.6219°W
Report Text: KFOZ 231853Z AUTO 19006KT 5SM BR OVC008 03/01 A2940 RMK AO2
Loading
Personal Weather Stations






























Interactive Weather Map New forecast layout! Learn more

10-Day Weather Forecast

Advertisements
Track Severe Weather on mobile